Pagina principale
METAR-TAF:

METAR-TAF

Aeroporti :

Aeroporto di N'Djamena-Hassan Djamous

N'Djamena, Ciad

latitudine: 12-08N, longitudine: 015-02E, altezza: 295 m

Osservazione

Il bollettino è stato emesso 25 minuti fa, alle 05:00 UTC
Vento 5 kt da nord/nord-est
Temperature 28°C
Umidità 22%
Pressione 1006 hPa
Visibilità: 8000 m

METAR: FTTJ 300500Z 02005KT 8000 NSC 28/04 Q1006 NOSIG

Ora: 06:25 (05:25 UTC)

Previsione

Il bollettino è stato emesso 6 ore e 25 minuti fa, alle 23:00 UTC
Previsione valida dal 30 alle 00 UTC al 31 alle 06 UTC
Vento 5 kt da nord-ovest
Visibilità: 6000 m
Temporaneamente
dal 30 alle 06 UTC al 30 alle 12 UTC
Visibilità: 4000 m
foschia
Temporaneamente
dal 30 alle 13 UTC al 30 alle 18 UTC
Vento 10 kt da sud/sud-est

TAF: FTTJ 292300Z 3000/3106 32005KT 6000 NSC TEMPO 3006/3012 4000 HZ TEMPO 3013/3018 16010KT

Osservazioni e previsioni meteorologiche di più di 4000 aeroporti (messaggi METAR e TAF).

Le stazioni disponibili sono rappresentate dai dischi gialli e rossi sulla carta.

Puntare il mouse per vedere il nome della stazione.

Clicca sopra per visualizzare le osservazioni e previsioni meteorologiche.

Per cambiare la mappa : fare clic sui pulsanti verdi con una croce nera per ingrandire, il pulsante verde con un trattino per diminuire, o sulla freccia verde per le mappe adiacenti.


METAR-TAF: